Time;durP1;ratioP1;P1;durP2;ratioP2;P2;SDS_P1;SDS_P2;PMS_P1;PMS_P2;Temp;Humidity;BMP_temperature;BMP_pressure;BME280_temperature;BME280_humidity;BME280_pressure;Samples;Min_cycle;Max_cycle;Signal;HPM_P1;HPM_P2
2021/09/01 00:00:10;;;;;;;;;;;;;;;11.83;90.91;97758.44;30001;983;1883;-66
2021/09/01 00:00:41;;;;;;;;;;;;;;;11.83;91.02;97766.59;30001;983;1862;-59
2021/09/01 00:01:12;;;;;;;;;;;;;;;11.82;91.06;97764.97;30001;983;1879;-66
2021/09/01 00:01:43;;;;;;;;;;;;;;;11.81;91.17;97766.06;30001;983;1879;-60
2021/09/01 00:02:14;;;;;;;;;;;;;;;11.81;91.26;97766.06;30001;983;1884;-65
2021/09/01 00:02:45;;;;;;;;;;;;;;;11.80;91.13;97761.72;30001;985;1879;-66
2021/09/01 00:03:16;;;;;;;;;;;;;;;11.81;91.20;97757.91;30001;983;1884;-66
2021/09/01 00:03:47;;;;;;;;;;;;;;;11.80;91.36;97759.00;30001;982;1880;-66
2021/09/01 00:04:17;;;;;;;;;;;;;;;11.79;91.26;97765.53;30001;982;1884;-65
2021/09/01 00:04:48;;;;;;;;;;;;;;;11.80;91.51;97766.34;30001;982;1880;-64
2021/09/01 00:05:19;;;;;;;;;;;;;;;11.79;91.22;97765.53;30001;982;1884;-64
2021/09/01 00:05:51;;;;;;;;;;;;;;;11.78;91.26;97766.66;30001;982;1862;-60
2021/09/01 00:06:21;;;;;;;;;;;;;;;11.77;91.13;97765.03;30001;982;1880;-59
2021/09/01 00:06:52;;;;;;;;;;;;;;;11.77;91.46;97761.50;30001;982;1880;-59
2021/09/01 00:07:23;;;;;;;;;;;;;;;11.76;91.30;97763.38;30001;983;1884;-65
2021/09/01 00:07:54;;;;;;;;;;;;;;;11.76;91.21;97760.66;30001;983;1862;-66
2021/09/01 00:08:25;;;;;;;;;;;;;;;11.74;91.26;97758.22;30001;973;1899;-64
2021/09/01 00:08:55;;;;;;;;;;;;;;;11.74;91.27;97758.22;30001;983;1879;-65
2021/09/01 00:09:26;;;;;;;;;;;;;;;11.74;91.36;97762.84;30001;983;1884;-59
2021/09/01 00:09:57;;;;;;;;;;;;;;;11.74;91.58;97757.41;30001;983;1880;-66
2021/09/01 00:10:28;;;;;;;;;;;;;;;11.74;91.45;97757.41;30001;983;1884;-64
2021/09/01 00:10:59;;;;;;;;;;;;;;;11.73;91.66;97761.22;30001;983;1880;-60
2021/09/01 00:11:31;;;;;;;;;;;;;;;11.73;91.37;97763.91;30001;982;1884;-65
2021/09/01 00:12:02;;;;;;;;;;;;;;;11.73;91.70;97766.66;30001;982;1862;-65
2021/09/01 00:12:34;;;;;;;;;;;;;;;11.72;91.66;97762.28;30001;982;1880;-65
2021/09/01 00:13:05;;;;;;;;;;;;;;;11.72;91.76;97765.00;30001;982;1880;-64
2021/09/01 00:13:36;;;;;;;;;;;;;;;11.71;91.68;97763.38;30001;982;1884;-66
2021/09/01 00:14:07;;;;;;;;;;;;;;;11.70;91.53;97762.56;30001;982;1880;-66
2021/09/01 00:14:38;;;;;;;;;;;;;;;11.70;91.66;97761.75;30001;982;1884;-61
2021/09/01 00:15:10;;;;;;;;;;;;;;;11.70;91.85;97762.56;30001;983;1879;-65
2021/09/01 00:15:42;;;;;;;;;;;;;;;11.70;91.64;97757.12;30001;983;1866;-65
2021/09/01 00:16:30;;;;;;;;;;;;;;;11.70;91.92;97761.75;30001;983;1875;-66
2021/09/01 00:17:01;;;;;;;;;;;;;;;11.71;91.76;97768.81;30001;983;1866;-66
2021/09/01 00:17:33;;;;;;;;;;;;;;;11.70;92.02;97768.00;30001;983;1875;-66
2021/09/01 00:18:04;;;;;;;;;;;;;;;11.70;91.83;97768.00;30001;983;1884;-66
2021/09/01 00:18:35;;;;;;;;;;;;;;;11.72;91.48;97775.87;30001;983;1880;-65
2021/09/01 00:19:09;;;;;;;;;;;;;;;11.71;91.67;97763.38;30001;982;1884;-66
2021/09/01 00:19:40;;;;;;;;;;;;;;;11.72;91.36;97775.87;30001;982;1862;-66
2021/09/01 00:20:11;;;;;;;;;;;;;;;11.70;91.25;97761.75;30001;982;1880;-67
2021/09/01 00:20:42;;;;;;;;;;;;;;;11.68;91.42;97764.75;30001;982;1880;-59
2021/09/01 00:21:13;;;;;;;;;;;;;;;11.68;91.62;97762.03;30001;982;1793;-66
2021/09/01 00:21:43;;;;;;;;;;;;;;;11.68;91.55;97767.47;30001;982;1862;-66
2021/09/01 00:22:14;;;;;;;;;;;;;;;11.68;91.45;97767.47;30001;983;1862;-66
2021/09/01 00:22:45;;;;;;;;;;;;;;;11.68;91.77;97770.19;30001;983;1786;-65
2021/09/01 00:23:17;;;;;;;;;;;;;;;11.67;91.84;97768.56;30001;983;1884;-65
2021/09/01 00:23:48;;;;;;;;;;;;;;;11.68;91.86;97769.38;30001;983;1879;-66
2021/09/01 00:24:18;;;;;;;;;;;;;;;11.68;91.79;97766.66;30001;983;1884;-66
2021/09/01 00:24:49;;;;;;;;;;;;;;;11.68;91.64;97766.66;30001;983;1879;-65
2021/09/01 00:25:20;;;;;;;;;;;;;;;11.67;91.73;97767.75;30001;983;1884;-66
2021/09/01 00:25:52;;;;;;;;;;;;;;;11.66;91.79;97766.13;30001;983;1879;-66
2021/09/01 00:26:23;;;;;;;;;;;;;;;11.66;92.01;97761.50;30001;983;1884;-65
2021/09/01 00:26:54;;;;;;;;;;;;;;;11.65;91.85;97769.94;30001;982;1880;-66
2021/09/01 00:27:25;;;;;;;;;;;;;;;11.65;91.78;97765.31;30001;982;1867;-66
2021/09/01 00:27:56;;;;;;;;;;;;;;;11.67;92.14;97767.75;30001;982;1876;-66
2021/09/01 00:28:27;;;;;;;;;;;;;;;11.66;91.95;97766.13;30001;982;1884;-65
2021/09/01 00:28:58;;;;;;;;;;;;;;;11.65;92.26;97767.22;30001;982;1789;-65
2021/09/01 00:29:28;;;;;;;;;;;;;;;11.66;92.06;97766.13;30001;982;1884;-66
2021/09/01 00:29:59;;;;;;;;;;;;;;;11.66;92.26;97766.13;30001;983;1788;-66
2021/09/01 00:30:30;;;;;;;;;;;;;;;11.65;92.02;97767.22;30001;983;1884;-65
2021/09/01 00:31:01;;;;;;;;;;;;;;;11.65;92.44;97767.22;30001;983;1879;-66
2021/09/01 00:31:32;;;;;;;;;;;;;;;11.65;92.12;97764.50;30001;983;1884;-66
2021/09/01 00:32:04;;;;;;;;;;;;;;;11.64;92.23;97769.13;30001;983;1879;-65
2021/09/01 00:32:34;;;;;;;;;;;;;;;11.65;92.18;97769.94;30001;983;1866;-66
2021/09/01 00:33:05;;;;;;;;;;;;;;;11.63;92.50;97764.78;30001;983;1875;-65
2021/09/01 00:33:36;;;;;;;;;;;;;;;11.64;92.25;97762.88;30001;983;1884;-66
2021/09/01 00:34:07;;;;;;;;;;;;;;;11.64;92.56;97762.88;30001;982;1880;-65
2021/09/01 00:34:38;;;;;;;;;;;;;;;11.65;92.32;97769.94;30001;982;1884;-66
2021/09/01 00:35:09;;;;;;;;;;;;;;;11.64;92.25;97765.59;30001;982;1880;-66
2021/09/01 00:35:40;;;;;;;;;;;;;;;11.63;92.38;97758.53;30001;982;1867;-65
2021/09/01 00:36:11;;;;;;;;;;;;;;;11.63;92.72;97766.69;30001;982;1876;-66
2021/09/01 00:36:42;;;;;;;;;;;;;;;11.62;92.56;97765.03;30001;983;1883;-65
2021/09/01 00:37:13;;;;;;;;;;;;;;;11.63;92.62;97761.25;30001;968;1903;-64
2021/09/01 00:37:44;;;;;;;;;;;;;;;11.62;92.85;97763.16;30001;983;1884;-64
2021/09/01 00:38:14;;;;;;;;;;;;;;;11.61;92.85;97758.81;30001;983;1879;-66
2021/09/01 00:38:46;;;;;;;;;;;;;;;11.62;92.75;97759.63;30001;983;1884;-66
2021/09/01 00:39:17;;;;;;;;;;;;;;;11.61;92.83;97769.66;30001;983;1879;-66
2021/09/01 00:39:48;;;;;;;;;;;;;;;11.61;93.09;97757.97;30001;983;1884;-66
2021/09/01 00:40:19;;;;;;;;;;;;;;;11.60;92.84;97759.06;30001;983;1880;-64
2021/09/01 00:40:50;;;;;;;;;;;;;;;11.60;92.57;97756.34;30001;983;1866;-66
2021/09/01 00:41:22;;;;;;;;;;;;;;;11.60;92.60;97750.91;30001;983;1875;-64
2021/09/01 00:41:53;;;;;;;;;;;;;;;11.60;92.69;97753.63;30001;982;1884;-65
2021/09/01 00:42:24;;;;;;;;;;;;;;;11.60;92.53;97761.78;30001;982;1862;-64
2021/09/01 00:42:55;;;;;;;;;;;;;;;11.59;92.17;97763.69;30001;982;1880;-66
2021/09/01 00:43:26;;;;;;;;;;;;;;;11.60;92.36;97767.22;30001;982;1880;-65
2021/09/01 00:43:58;;;;;;;;;;;;;;;11.59;92.28;97762.88;30001;969;1811;-64
2021/09/01 00:44:29;;;;;;;;;;;;;;;11.57;92.42;97763.16;30001;983;1879;-66
2021/09/01 00:45:00;;;;;;;;;;;;;;;11.55;92.00;97765.34;30001;968;1812;-66
2021/09/01 00:45:31;;;;;;;;;;;;;;;11.54;92.24;97762.91;30001;983;1879;-67
2021/09/01 00:46:01;;;;;;;;;;;;;;;11.52;92.40;97762.38;30001;983;1884;-65
2021/09/01 00:46:32;;;;;;;;;;;;;;;11.50;92.45;97764.53;30001;983;1879;-66
2021/09/01 00:47:07;;;;;;;;;;;;;;;11.51;92.37;97763.44;30001;970;1897;-66
2021/09/01 00:47:39;;;;;;;;;;;;;;;11.50;92.54;97764.53;30001;983;1862;-66
2021/09/01 00:48:10;;;;;;;;;;;;;;;11.50;92.47;97761.81;30001;983;1880;-65
2021/09/01 00:48:43;;;;;;;;;;;;;;;11.49;92.23;97765.63;30001;983;1880;-66
2021/09/01 00:49:14;;;;;;;;;;;;;;;11.49;92.19;97760.19;30001;986;1884;-65
2021/09/01 00:49:45;;;;;;;;;;;;;;;11.48;92.17;97759.38;30001;982;1880;-66
2021/09/01 00:50:16;;;;;;;;;;;;;;;11.49;92.30;97761.00;30001;982;1867;-66
2021/09/01 00:50:51;;;;;;;;;;;;;;;11.49;92.08;97754.75;30001;982;1876;-65
2021/09/01 00:51:22;;;;;;;;;;;;;;;11.49;92.15;97757.47;30001;982;1884;-65
2021/09/01 00:51:53;;;;;;;;;;;;;;;11.49;92.40;97758.28;30001;983;1879;-65
2021/09/01 00:52:24;;;;;;;;;;;;;;;11.50;92.31;97756.38;30001;983;1883;-67
2021/09/01 00:52:55;;;;;;;;;;;;;;;11.50;92.26;97753.66;30001;983;1879;-66
2021/09/01 00:53:26;;;;;;;;;;;;;;;11.49;92.41;97754.75;30001;983;1884;-65
2021/09/01 00:53:58;;;;;;;;;;;;;;;11.49;92.33;97752.03;30001;983;1879;-66
2021/09/01 00:54:30;;;;;;;;;;;;;;;11.49;92.06;97757.47;30001;983;1884;-65
2021/09/01 00:55:02;;;;;;;;;;;;;;;11.49;92.21;97746.59;30001;983;1862;-65
2021/09/01 00:55:33;;;;;;;;;;;;;;;11.49;92.22;97757.47;30001;983;1862;-65
2021/09/01 00:56:05;;;;;;;;;;;;;;;11.49;92.23;97754.75;30001;983;1880;-65
2021/09/01 00:56:36;;;;;;;;;;;;;;;11.51;92.35;97763.44;30001;983;1884;-65
2021/09/01 00:57:07;;;;;;;;;;;;;;;11.51;92.27;97758.00;30001;982;1880;-66
2021/09/01 00:57:40;;;;;;;;;;;;;;;11.52;92.43;97754.22;30001;982;1884;-65
2021/09/01 00:58:12;;;;;;;;;;;;;;;11.52;92.34;97754.22;30001;982;1862;-66
2021/09/01 00:58:44;;;;;;;;;;;;;;;11.52;92.05;97762.38;30001;982;1880;-66
2021/09/01 00:59:16;;;;;;;;;;;;;;;11.51;92.33;97756.12;30001;983;1861;-65
2021/09/01 00:59:47;;;;;;;;;;;;;;;11.52;92.14;97756.94;30001;983;1879;-64
2021/09/01 01:00:31;;;;;;;;;;;;;;;11.51;92.20;97756.12;30001;983;1879;-66
2021/09/01 01:01:56;;;;;;;;;;;;;;;11.53;92.23;97762.09;30001;983;1879;-66
2021/09/01 01:02:27;;;;;;;;;;;;;;;11.55;91.94;97767.25;30001;983;1866;-67
2021/09/01 01:02:58;;;;;;;;;;;;;;;11.54;92.20;97754.75;30001;983;1875;-64
2021/09/01 01:03:29;;;;;;;;;;;;;;;11.55;91.86;97759.09;30001;983;1884;-66
2021/09/01 01:03:59;;;;;;;;;;;;;;;11.55;92.00;97764.53;30001;983;1880;-64
2021/09/01 01:04:31;;;;;;;;;;;;;;;11.54;91.92;97762.91;30001;985;1884;-65
2021/09/01 01:05:01;;;;;;;;;;;;;;;11.55;91.75;97761.81;30001;982;1880;-67
2021/09/01 01:05:32;;;;;;;;;;;;;;;11.55;92.09;97759.09;30001;982;1884;-65
2021/09/01 01:06:03;;;;;;;;;;;;;;;11.55;92.04;97761.81;30001;982;1880;-66
2021/09/01 01:06:34;;;;;;;;;;;;;;;11.55;91.93;97765.34;30001;986;1884;-65
2021/09/01 01:07:06;;;;;;;;;;;;;;;11.55;91.94;97764.53;30001;983;1862;-66
2021/09/01 01:07:36;;;;;;;;;;;;;;;11.55;92.05;97767.25;30001;983;1879;-63
2021/09/01 01:08:08;;;;;;;;;;;;;;;11.54;91.77;97768.34;30001;983;1879;-66
2021/09/01 01:08:39;;;;;;;;;;;;;;;11.56;91.74;97763.44;30001;983;1883;-66
2021/09/01 01:09:10;;;;;;;;;;;;;;;11.55;92.13;97764.53;30001;983;1879;-59
2021/09/01 01:09:41;;;;;;;;;;;;;;;11.55;92.08;97764.53;30001;983;1866;-68
2021/09/01 01:10:12;;;;;;;;;;;;;;;11.55;92.02;97767.25;30001;983;1857;-65
2021/09/01 01:10:42;;;;;;;;;;;;;;;11.54;92.01;97762.91;30001;983;1810;-66
2021/09/01 01:11:13;;;;;;;;;;;;;;;11.55;91.93;97767.25;30001;972;1898;-65
2021/09/01 01:12:07;;;;;;;;;;;;;;;11.54;91.95;97765.63;30001;982;1884;-66
2021/09/01 01:12:38;;;;;;;;;;;;;;;11.55;92.08;97764.53;30001;982;1880;-66
2021/09/01 01:13:09;;;;;;;;;;;;;;;11.55;92.13;97759.09;30001;982;1884;-66
2021/09/01 01:13:41;;;;;;;;;;;;;;;11.54;92.08;97763.72;30001;982;1880;-64
2021/09/01 01:14:12;;;;;;;;;;;;;;;11.55;92.20;97764.53;30001;982;1884;-65
2021/09/01 01:14:44;;;;;;;;;;;;;;;11.55;91.94;97759.09;30001;983;1879;-66
2021/09/01 01:15:16;;;;;;;;;;;;;;;11.56;91.98;97766.16;30001;983;1866;-66
2021/09/01 01:15:47;;;;;;;;;;;;;;;11.55;92.21;97764.53;30001;983;1875;-65
2021/09/01 01:16:19;;;;;;;;;;;;;;;11.54;92.23;97761.00;30001;983;1884;-67
2021/09/01 01:16:50;;;;;;;;;;;;;;;11.55;92.02;97761.81;30001;983;1880;-66
2021/09/01 01:17:23;;;;;;;;;;;;;;;11.55;92.07;97764.53;30001;983;1884;-65
2021/09/01 01:17:53;;;;;;;;;;;;;;;11.54;91.85;97762.91;30001;983;1880;-66
2021/09/01 01:18:25;;;;;;;;;;;;;;;11.54;92.11;97761.00;30001;983;1884;-66
2021/09/01 01:18:58;;;;;;;;;;;;;;;11.53;92.20;97764.81;30001;982;1880;-65
2021/09/01 01:19:29;;;;;;;;;;;;;;;11.53;92.22;97762.09;30001;982;1884;-66
2021/09/01 01:20:00;;;;;;;;;;;;;;;11.54;91.80;97765.63;30001;982;1862;-68
2021/09/01 01:20:32;;;;;;;;;;;;;;;11.52;92.27;97763.19;30001;982;1880;-65
2021/09/01 01:21:03;;;;;;;;;;;;;;;11.52;92.06;97762.38;30001;982;1880;-66
2021/09/01 01:21:34;;;;;;;;;;;;;;;11.52;92.18;97757.75;30001;982;1884;-65
2021/09/01 01:22:05;;;;;;;;;;;;;;;11.52;92.29;97759.66;30001;983;1879;-65
2021/09/01 01:22:35;;;;;;;;;;;;;;;11.52;92.31;97765.09;30001;983;1884;-66
2021/09/01 01:23:07;;;;;;;;;;;;;;;11.52;92.40;97759.66;30001;983;1862;-66
2021/09/01 01:23:38;;;;;;;;;;;;;;;11.51;92.07;97758.00;30001;983;1862;-66
2021/09/01 01:24:08;;;;;;;;;;;;;;;11.52;92.24;97762.38;30001;983;1879;-67
2021/09/01 01:24:44;;;;;;;;;;;;;;;11.52;92.36;97765.09;30001;983;1884;-65
2021/09/01 01:25:28;;;;;;;;;;;;;;;11.53;92.27;97761.28;30001;983;1880;-67
2021/09/01 01:25:59;;;;;;;;;;;;;;;11.51;92.45;97755.31;30001;982;1808;-65
2021/09/01 01:26:30;;;;;;;;;;;;;;;11.51;92.23;97758.84;30001;982;1880;-66
2021/09/01 01:27:01;;;;;;;;;;;;;;;11.53;92.29;97764.00;30001;982;1867;-59
2021/09/01 01:27:36;;;;;;;;;;;;;;;11.52;92.61;97765.91;30001;982;1858;-66
2021/09/01 01:28:08;;;;;;;;;;;;;;;11.53;92.53;97755.84;30001;982;1867;-67
2021/09/01 01:28:38;;;;;;;;;;;;;;;11.54;92.43;97757.47;30001;982;1876;-64
2021/09/01 01:29:10;;;;;;;;;;;;;;;11.53;92.49;97758.56;30001;982;1884;-66
2021/09/01 01:29:41;;;;;;;;;;;;;;;11.53;92.27;97755.84;30001;983;1879;-66
2021/09/01 01:30:16;;;;;;;;;;;;;;;11.52;92.38;97756.94;30001;983;1884;-65
2021/09/01 01:30:47;;;;;;;;;;;;;;;11.51;92.27;97763.44;30001;983;1879;-66
2021/09/01 01:31:17;;;;;;;;;;;;;;;11.51;92.44;97758.00;30001;983;1884;-65
2021/09/01 01:31:48;;;;;;;;;;;;;;;11.50;92.44;97750.94;30001;983;1879;-65
2021/09/01 01:32:19;;;;;;;;;;;;;;;11.49;92.56;97749.31;30001;983;1884;-66
2021/09/01 01:32:51;;;;;;;;;;;;;;;11.49;92.46;97752.84;30001;983;1862;-59
2021/09/01 01:33:22;;;;;;;;;;;;;;;11.50;92.63;97756.38;30001;983;1880;-65
2021/09/01 01:33:53;;;;;;;;;;;;;;;11.49;92.50;97752.84;30001;982;1880;-65
2021/09/01 01:34:24;;;;;;;;;;;;;;;11.51;92.50;97758.00;30001;982;1884;-64
2021/09/01 01:34:55;;;;;;;;;;;;;;;11.50;92.37;97751.78;30001;982;1880;-65
2021/09/01 01:35:27;;;;;;;;;;;;;;;11.52;92.52;97748.78;30001;982;1884;-66
2021/09/01 01:35:58;;;;;;;;;;;;;;;11.52;92.36;97754.22;30001;982;1880;-66
2021/09/01 01:36:29;;;;;;;;;;;;;;;11.51;92.50;97753.41;30001;982;1884;-66
2021/09/01 01:37:06;;;;;;;;;;;;;;;11.52;92.50;97754.22;30001;983;1879;-64
2021/09/01 01:37:39;;;;;;;;;;;;;;;11.51;92.47;97752.59;30001;983;1884;-66
2021/09/01 01:38:11;;;;;;;;;;;;;;;11.51;92.28;97749.88;30001;983;1862;-66
2021/09/01 01:38:42;;;;;;;;;;;;;;;11.49;92.55;97755.56;30001;983;1879;-66
2021/09/01 01:39:13;;;;;;;;;;;;;;;11.49;92.34;97757.47;30001;983;1879;-65
2021/09/01 01:39:44;;;;;;;;;;;;;;;11.48;92.58;97753.94;30001;983;1884;-66
2021/09/01 01:40:15;;;;;;;;;;;;;;;11.48;92.60;97753.13;30001;983;1880;-66
2021/09/01 01:40:47;;;;;;;;;;;;;;;11.48;92.81;97758.56;30001;983;1884;-65
2021/09/01 01:41:18;;;;;;;;;;;;;;;11.48;92.43;97758.56;30001;982;1880;-66
2021/09/01 01:41:48;;;;;;;;;;;;;;;11.47;92.58;97756.94;30001;982;1884;-66
2021/09/01 01:42:19;;;;;;;;;;;;;;;11.47;92.46;97756.94;30001;982;1880;-64
2021/09/01 01:42:53;;;;;;;;;;;;;;;11.47;92.81;97751.50;30001;982;1884;-66
2021/09/01 01:43:24;;;;;;;;;;;;;;;11.47;92.74;97757.75;30001;982;1862;-65
2021/09/01 01:43:55;;;;;;;;;;;;;;;11.47;92.54;97757.75;30001;983;1879;-66
2021/09/01 01:44:29;;;;;;;;;;;;;;;11.47;92.79;97762.38;30001;983;1879;-65
2021/09/01 01:45:01;;;;;;;;;;;;;;;11.49;92.80;97760.19;30001;983;1884;-66
2021/09/01 01:45:36;;;;;;;;;;;;;;;11.48;92.74;97764.00;30001;983;1879;-64
2021/09/01 01:46:07;;;;;;;;;;;;;;;11.47;92.76;97751.50;30001;983;1884;-65
2021/09/01 01:46:38;;;;;;;;;;;;;;;11.46;92.69;97756.12;30001;983;1879;-64
2021/09/01 01:47:09;;;;;;;;;;;;;;;11.46;92.75;97760.75;30001;983;1884;-65
2021/09/01 01:47:40;;;;;;;;;;;;;;;11.44;92.85;97761.03;30001;983;1880;-59
2021/09/01 01:48:13;;;;;;;;;;;;;;;11.43;92.41;97757.50;30001;983;1866;-65
2021/09/01 01:48:43;;;;;;;;;;;;;;;11.43;92.73;97768.37;30001;982;1875;-65
2021/09/01 01:49:14;;;;;;;;;;;;;;;11.43;92.72;97755.91;30001;982;1884;-68
2021/09/01 01:49:45;;;;;;;;;;;;;;;11.43;92.61;97766.75;30001;982;1880;-66
2021/09/01 01:50:16;;;;;;;;;;;;;;;11.41;92.39;97759.69;30001;982;1867;-66
2021/09/01 01:50:47;;;;;;;;;;;;;;;11.39;92.36;97761.88;30001;982;1876;-65
2021/09/01 01:51:18;;;;;;;;;;;;;;;11.39;92.22;97755.63;30001;983;1883;-65
2021/09/01 01:51:49;;;;;;;;;;;;;;;11.39;92.26;97761.06;30001;983;1879;-66
2021/09/01 01:52:20;;;;;;;;;;;;;;;11.37;92.47;97758.63;30001;983;1884;-66
2021/09/01 01:52:51;;;;;;;;;;;;;;;11.36;92.27;97756.19;30001;983;1879;-66
2021/09/01 01:53:21;;;;;;;;;;;;;;;11.36;92.18;97757.00;30001;983;1866;-64
2021/09/01 01:53:52;;;;;;;;;;;;;;;11.36;92.17;97762.44;30001;983;1875;-66
2021/09/01 01:54:23;;;;;;;;;;;;;;;11.35;92.44;97760.81;30001;983;1884;-59
2021/09/01 01:54:54;;;;;;;;;;;;;;;11.33;92.25;97760.25;30001;983;1880;-66
2021/09/01 01:55:25;;;;;;;;;;;;;;;11.32;92.21;97755.91;30001;983;1866;-66
2021/09/01 01:55:56;;;;;;;;;;;;;;;11.31;92.41;97759.72;30001;983;1875;-65
2021/09/01 01:56:27;;;;;;;;;;;;;;;11.31;92.16;97759.72;30001;982;1884;-66
2021/09/01 01:56:59;;;;;;;;;;;;;;;11.30;92.35;97758.09;30001;982;1880;-66
2021/09/01 01:57:30;;;;;;;;;;;;;;;11.29;92.43;97756.47;30001;982;1884;-65
2021/09/01 01:58:00;;;;;;;;;;;;;;;11.28;92.68;97760.28;30001;982;1880;-65
2021/09/01 01:58:31;;;;;;;;;;;;;;;11.27;92.60;97755.13;30001;982;1884;-59
2021/09/01 01:59:02;;;;;;;;;;;;;;;11.27;92.58;97753.22;30001;983;1879;-66
2021/09/01 01:59:33;;;;;;;;;;;;;;;11.26;92.57;97757.00;30001;983;1884;-66
2021/09/01 02:00:05;;;;;;;;;;;;;;;11.26;92.83;97762.44;30001;983;1862;-65
2021/09/01 02:00:36;;;;;;;;;;;;;;;11.26;92.76;97759.72;30001;983;1879;-65
2021/09/01 02:01:07;;;;;;;;;;;;;;;11.26;92.66;97757.00;30001;983;1879;-59
2021/09/01 02:01:38;;;;;;;;;;;;;;;11.25;92.56;97760.81;30001;983;1802;-66
2021/09/01 02:02:09;;;;;;;;;;;;;;;11.26;92.79;97764.34;30001;983;1880;-66
2021/09/01 02:02:41;;;;;;;;;;;;;;;11.25;92.72;97760.00;30001;983;1884;-66
2021/09/01 02:03:12;;;;;;;;;;;;;;;11.23;92.83;97756.75;30001;983;1880;-66
2021/09/01 02:03:42;;;;;;;;;;;;;;;11.24;92.49;97763.81;30001;982;1884;-65
2021/09/01 02:04:14;;;;;;;;;;;;;;;11.23;92.47;97763.00;30001;982;1880;-65
2021/09/01 02:04:44;;;;;;;;;;;;;;;11.23;92.63;97756.75;30001;982;1884;-66
2021/09/01 02:05:15;;;;;;;;;;;;;;;11.22;92.68;97755.94;30001;970;1879;-60
2021/09/01 02:05:46;;;;;;;;;;;;;;;11.21;92.45;97753.50;30001;982;1880;-65
2021/09/01 02:06:17;;;;;;;;;;;;;;;11.21;92.69;97754.31;30001;983;1879;-66
2021/09/01 02:06:48;;;;;;;;;;;;;;;11.20;92.67;97758.13;30001;983;1883;-65
2021/09/01 02:07:19;;;;;;;;;;;;;;;11.19;92.51;97756.50;30001;983;1879;-66
2021/09/01 02:07:50;;;;;;;;;;;;;;;11.19;92.43;97755.69;30001;983;1884;-66
2021/09/01 02:08:20;;;;;;;;;;;;;;;11.19;92.70;97761.91;30001;983;1879;-66
2021/09/01 02:08:53;;;;;;;;;;;;;;;11.19;92.77;97755.69;30001;983;1884;-66
2021/09/01 02:09:24;;;;;;;;;;;;;;;11.19;92.79;97756.50;30001;983;1862;-65
2021/09/01 02:09:55;;;;;;;;;;;;;;;11.18;92.53;97754.84;30001;983;1880;-66
2021/09/01 02:10:26;;;;;;;;;;;;;;;11.19;92.91;97756.50;30001;983;1880;-66
2021/09/01 02:10:57;;;;;;;;;;;;;;;11.19;92.51;97753.78;30001;983;1884;-65
2021/09/01 02:11:28;;;;;;;;;;;;;;;11.20;92.51;97758.13;30001;982;1880;-66
2021/09/01 02:11:59;;;;;;;;;;;;;;;11.19;92.61;97767.34;30001;982;1884;-66
2021/09/01 02:12:30;;;;;;;;;;;;;;;11.19;92.62;97755.69;30001;982;1880;-66
2021/09/01 02:13:01;;;;;;;;;;;;;;;11.19;92.61;97750.25;30001;982;1863;-66
2021/09/01 02:13:32;;;;;;;;;;;;;;;11.18;92.65;97754.84;30001;982;1854;-66
2021/09/01 02:14:02;;;;;;;;;;;;;;;11.17;92.67;97764.09;30001;983;1769;-66
2021/09/01 02:14:33;;;;;;;;;;;;;;;11.16;92.73;97762.47;30001;982;1871;-64
2021/09/01 02:15:05;;;;;;;;;;;;;;;11.16;92.77;97759.75;30001;983;1879;-65
2021/09/01 02:15:36;;;;;;;;;;;;;;;11.15;93.05;97749.97;30001;983;1875;-64
2021/09/01 02:16:06;;;;;;;;;;;;;;;11.16;92.94;97761.66;30001;983;1862;-65
2021/09/01 02:16:37;;;;;;;;;;;;;;;11.15;92.76;97749.16;30001;983;1871;-65
2021/09/01 02:17:08;;;;;;;;;;;;;;;11.15;93.07;97760.03;30001;983;1878;-66
2021/09/01 02:17:40;;;;;;;;;;;;;;;11.14;93.08;97759.22;30001;983;1875;-66
2021/09/01 02:18:11;;;;;;;;;;;;;;;11.15;92.94;97762.75;30001;982;1880;-65
2021/09/01 02:18:42;;;;;;;;;;;;;;;11.14;93.10;97759.22;30001;982;1858;-66
2021/09/01 02:19:13;;;;;;;;;;;;;;;11.15;92.99;97763.56;30001;982;1875;-67
2021/09/01 02:19:45;;;;;;;;;;;;;;;11.16;93.20;97754.31;30001;982;1876;-66
2021/09/01 02:20:16;;;;;;;;;;;;;;;11.14;93.17;97764.66;30001;982;1880;-65
2021/09/01 02:20:47;;;;;;;;;;;;;;;11.16;93.39;97767.09;30001;982;1876;-65
2021/09/01 02:21:18;;;;;;;;;;;;;;;11.15;93.04;97763.56;30001;982;1863;-66
2021/09/01 02:21:49;;;;;;;;;;;;;;;11.15;93.07;97766.28;30001;983;1870;-65
2021/09/01 02:22:20;;;;;;;;;;;;;;;11.14;93.03;97756.50;30001;983;1879;-66
2021/09/01 02:22:51;;;;;;;;;;;;;;;11.15;93.14;97760.84;30001;983;1857;-68
2021/09/01 02:23:22;;;;;;;;;;;;;;;11.15;93.47;97766.28;30001;983;1875;-64
2021/09/01 02:23:53;;;;;;;;;;;;;;;11.15;93.50;97766.28;30001;983;1875;-66
2021/09/01 02:24:24;;;;;;;;;;;;;;;11.15;93.49;97769.00;30001;983;1880;-64
2021/09/01 02:24:55;;;;;;;;;;;;;;;11.17;93.18;97769.53;30001;983;1858;-65
2021/09/01 02:25:27;;;;;;;;;;;;;;;11.17;93.26;97764.09;30001;983;1875;-60
2021/09/01 02:25:58;;;;;;;;;;;;;;;11.20;93.52;97768.16;30001;982;1875;-67
2021/09/01 02:26:29;;;;;;;;;;;;;;;11.20;93.08;97768.16;30001;982;1880;-65
2021/09/01 02:26:59;;;;;;;;;;;;;;;11.20;93.05;97766.25;30001;982;1876;-66
2021/09/01 02:27:31;;;;;;;;;;;;;;;11.20;93.01;97768.16;30001;982;1862;-65
2021/09/01 02:28:02;;;;;;;;;;;;;;;11.21;93.04;97765.19;30001;982;1871;-66
2021/09/01 02:28:33;;;;;;;;;;;;;;;11.21;93.09;97764.38;30001;982;1880;-66
2021/09/01 02:29:03;;;;;;;;;;;;;;;11.22;93.19;97766.00;30001;983;1869;-66
2021/09/01 02:29:34;;;;;;;;;;;;;;;11.20;92.87;97768.16;30001;983;1752;-65
2021/09/01 02:30:06;;;;;;;;;;;;;;;11.20;93.08;97765.44;30001;983;1853;-66
2021/09/01 02:30:37;;;;;;;;;;;;;;;11.20;93.20;97758.13;30001;983;1879;-65
2021/09/01 02:31:09;;;;;;;;;;;;;;;11.20;93.24;97770.88;30001;983;1875;-66
2021/09/01 02:31:40;;;;;;;;;;;;;;;11.20;92.97;97768.97;30001;983;1880;-66
2021/09/01 02:32:11;;;;;;;;;;;;;;;11.20;93.11;97768.97;30001;983;1858;-65
2021/09/01 02:32:42;;;;;;;;;;;;;;;11.19;93.00;97759.19;30001;983;1875;-66
2021/09/01 02:33:13;;;;;;;;;;;;;;;11.19;93.20;97766.53;30001;982;1875;-67
2021/09/01 02:33:44;;;;;;;;;;;;;;;11.20;92.82;97770.88;30001;982;1862;-66
2021/09/01 02:34:15;;;;;;;;;;;;;;;11.18;93.22;97764.91;30001;982;1871;-66
2021/09/01 02:34:46;;;;;;;;;;;;;;;11.18;93.21;97757.56;30001;982;1880;-64
2021/09/01 02:35:17;;;;;;;;;;;;;;;11.17;93.07;97769.53;30001;982;1858;-67
2021/09/01 02:35:47;;;;;;;;;;;;;;;11.17;92.96;97769.53;30001;982;1876;-66
2021/09/01 02:36:19;;;;;;;;;;;;;;;11.18;93.17;97759.47;30001;982;1876;-65
2021/09/01 02:36:49;;;;;;;;;;;;;;;11.18;92.95;97757.56;30001;983;1879;-65
2021/09/01 02:37:20;;;;;;;;;;;;;;;11.18;93.22;97754.03;30001;983;1875;-67
2021/09/01 02:37:52;;;;;;;;;;;;;;;11.18;92.95;97754.84;30001;983;1862;-60
2021/09/01 02:38:23;;;;;;;;;;;;;;;11.17;93.13;97764.09;30001;983;1871;-65
2021/09/01 02:38:54;;;;;;;;;;;;;;;11.17;92.99;97764.09;30001;983;1879;-60
2021/09/01 02:39:25;;;;;;;;;;;;;;;11.16;92.94;97754.31;30001;983;1875;-59
2021/09/01 02:39:56;;;;;;;;;;;;;;;11.16;92.94;97762.47;30001;983;1880;-65
2021/09/01 02:40:27;;;;;;;;;;;;;;;11.16;93.21;97762.47;30001;983;1875;-65
2021/09/01 02:40:58;;;;;;;;;;;;;;;11.16;92.87;97761.66;30001;982;1880;-65
2021/09/01 02:41:29;;;;;;;;;;;;;;;11.17;93.02;97764.09;30001;982;1876;-64
2021/09/01 02:42:00;;;;;;;;;;;;;;;11.18;92.98;97763.00;30001;982;1880;-66
2021/09/01 02:42:30;;;;;;;;;;;;;;;11.19;93.06;97756.50;30001;982;1858;-65
2021/09/01 02:43:01;;;;;;;;;;;;;;;11.18;93.07;97763.00;30001;982;1876;-64
2021/09/01 02:43:32;;;;;;;;;;;;;;;11.19;93.27;97766.53;30001;983;1857;-67
2021/09/01 02:44:03;;;;;;;;;;;;;;;11.18;93.43;97754.84;30001;983;1875;-66
2021/09/01 02:44:35;;;;;;;;;;;;;;;11.19;93.38;97761.09;30001;983;1875;-65
2021/09/01 02:45:06;;;;;;;;;;;;;;;11.18;93.44;97764.91;30001;983;1879;-66
2021/09/01 02:45:37;;;;;;;;;;;;;;;11.18;93.40;97764.91;30001;983;1875;-65
2021/09/01 02:46:08;;;;;;;;;;;;;;;11.17;93.57;97766.81;30001;983;1879;-64
2021/09/01 02:46:38;;;;;;;;;;;;;;;11.16;93.57;97767.91;30001;983;1875;-65
2021/09/01 02:47:09;;;;;;;;;;;;;;;11.16;93.27;97767.91;30001;983;1880;-67
2021/09/01 02:47:40;;;;;;;;;;;;;;;11.16;93.34;97767.91;30001;983;1875;-66
2021/09/01 02:48:11;;;;;;;;;;;;;;;11.16;93.50;97765.19;30001;982;1880;-66
2021/09/01 02:48:42;;;;;;;;;;;;;;;11.16;93.34;97767.91;30001;982;1858;-58